Time;durP1;ratioP1;P1;durP2;ratioP2;P2;SDS_P1;SDS_P2;PMS_P1;PMS_P2;Temp;Humidity;BMP_temperature;BMP_pressure;BME280_temperature;BME280_humidity;BME280_pressure;Samples;Min_cycle;Max_cycle;Signal;HPM_P1;HPM_P2
2021/08/07 00:01:13;;;;;;;0.00;0.00;;;;;;;;;;5109504;28;20506;-74
2021/08/07 00:03:40;;;;;;;0.00;0.00;;;;;;;;;;5120537;28;20198;-73
2021/08/07 00:06:08;;;;;;;0.00;0.00;;;;;;;;;;5110467;28;20235;-74
2021/08/07 00:08:34;;;;;;;0.00;0.00;;;;;;;;;;5113970;28;20201;-73
2021/08/07 00:11:00;;;;;;;0.00;0.00;;;;;;;;;;5119998;28;20214;-74
2021/08/07 00:13:27;;;;;;;0.00;0.00;;;;;;;;;;5121978;28;20579;-74
2021/08/07 00:15:53;;;;;;;0.00;0.00;;;;;;;;;;5112493;28;20244;-74
2021/08/07 00:18:19;;;;;;;0.00;0.00;;;;;;;;;;5127691;28;20227;-74
2021/08/07 00:20:45;;;;;;;0.00;0.00;;;;;;;;;;5114800;28;20200;-74
2021/08/07 00:23:13;;;;;;;0.00;0.00;;;;;;;;;;5126608;28;20201;-73
2021/08/07 00:25:39;;;;;;;0.03;0.03;;;;;;;;;;5111319;28;20548;-74
2021/08/07 00:28:06;;;;;;;0.10;0.10;;;;;;;;;;5118435;28;20225;-75
2021/08/07 00:30:32;;;;;;;0.00;0.00;;;;;;;;;;5107129;28;20215;-73
2021/08/07 00:32:59;;;;;;;0.03;0.03;;;;;;;;;;5110732;28;20226;-73
2021/08/07 00:35:25;;;;;;;0.10;0.10;;;;;;;;;;5110933;28;20215;-72
2021/08/07 00:37:51;;;;;;;0.10;0.10;;;;;;;;;;5127889;27;20239;-72
2021/08/07 00:40:19;;;;;;;0.10;0.10;;;;;;;;;;5122488;28;20424;-72
2021/08/07 00:42:46;;;;;;;0.00;0.00;;;;;;;;;;5117651;27;20210;-73
2021/08/07 00:45:12;;;;;;;0.00;0.00;;;;;;;;;;5117615;28;20379;-73
2021/08/07 00:47:38;;;;;;;0.00;0.00;;;;;;;;;;5120122;28;20206;-73
2021/08/07 00:50:06;;;;;;;0.00;0.00;;;;;;;;;;5110329;28;20208;-73
2021/08/07 00:52:32;;;;;;;0.00;0.00;;;;;;;;;;5107694;28;20220;-73
2021/08/07 00:54:59;;;;;;;0.00;0.00;;;;;;;;;;5126546;28;20232;-74
2021/08/07 00:57:27;;;;;;;0.05;0.05;;;;;;;;;;5122777;28;20552;-74
2021/08/07 00:59:53;;;;;;;0.00;0.00;;;;;;;;;;5117641;28;20251;-74
2021/08/07 01:02:20;;;;;;;0.00;0.00;;;;;;;;;;5110557;28;20275;-74
2021/08/07 01:04:49;;;;;;;0.00;0.00;;;;;;;;;;5106848;28;20496;-74
2021/08/07 01:07:21;;;;;;;0.00;0.00;;;;;;;;;;5107382;28;20265;-74
2021/08/07 01:09:52;;;;;;;0.00;0.00;;;;;;;;;;5119663;28;20202;-74
2021/08/07 01:12:20;;;;;;;0.00;0.00;;;;;;;;;;5106351;28;20204;-74
2021/08/07 01:14:49;;;;;;;0.00;0.00;;;;;;;;;;5113801;28;20261;-74
2021/08/07 01:17:19;;;;;;;0.00;0.00;;;;;;;;;;5113281;28;20257;-74
2021/08/07 01:19:49;;;;;;;0.00;0.00;;;;;;;;;;5112690;28;20213;-75
2021/08/07 01:22:17;;;;;;;0.00;0.00;;;;;;;;;;5128221;28;20236;-73
2021/08/07 01:24:46;;;;;;;0.00;0.00;;;;;;;;;;5122365;28;20248;-73
2021/08/07 01:27:17;;;;;;;0.05;0.05;;;;;;;;;;5106641;28;20213;-74
2021/08/07 01:29:44;;;;;;;0.00;0.00;;;;;;;;;;5106379;28;20197;-73
2021/08/07 01:32:10;;;;;;;0.00;0.00;;;;;;;;;;5106616;28;20199;-73
2021/08/07 01:34:38;;;;;;;0.10;0.10;;;;;;;;;;5105847;28;20233;-73
2021/08/07 01:37:04;;;;;;;0.00;0.00;;;;;;;;;;5106781;28;20206;-73
2021/08/07 01:39:31;;;;;;;0.10;0.10;;;;;;;;;;5106258;28;20251;-75
2021/08/07 01:41:57;;;;;;;0.00;0.00;;;;;;;;;;5112236;28;20216;-73
2021/08/07 01:44:24;;;;;;;0.03;0.03;;;;;;;;;;5114211;28;20220;-73
2021/08/07 01:46:55;;;;;;;0.03;0.03;;;;;;;;;;5112014;28;20204;-73
2021/08/07 01:49:27;;;;;;;0.00;0.00;;;;;;;;;;5126582;28;20191;-72
2021/08/07 01:51:55;;;;;;;0.00;0.00;;;;;;;;;;5108147;28;20209;-75
2021/08/07 01:54:26;;;;;;;0.08;0.08;;;;;;;;;;5105954;28;20229;-73
2021/08/07 01:56:53;;;;;;;0.03;0.03;;;;;;;;;;5105965;28;20209;-73
2021/08/07 01:59:21;;;;;;;0.00;0.00;;;;;;;;;;5105862;28;20204;-73
2021/08/07 02:01:49;;;;;;;0.00;0.00;;;;;;;;;;5105895;28;20251;-73
2021/08/07 02:04:16;;;;;;;0.00;0.00;;;;;;;;;;5106015;28;20206;-74
2021/08/07 02:06:42;;;;;;;0.00;0.00;;;;;;;;;;5118658;28;20226;-74
2021/08/07 02:09:09;;;;;;;0.08;0.08;;;;;;;;;;5106242;28;20201;-74
2021/08/07 02:11:35;;;;;;;0.00;0.00;;;;;;;;;;5104902;28;20330;-74
2021/08/07 02:14:02;;;;;;;0.00;0.00;;;;;;;;;;5119535;28;20286;-73
2021/08/07 02:16:29;;;;;;;0.08;0.08;;;;;;;;;;5114941;28;20323;-74
2021/08/07 02:18:57;;;;;;;0.00;0.00;;;;;;;;;;5124335;28;20433;-73
2021/08/07 02:21:24;;;;;;;0.00;0.00;;;;;;;;;;5113483;28;20213;-72
2021/08/07 02:23:50;;;;;;;0.10;0.10;;;;;;;;;;5126113;28;20236;-73
2021/08/07 02:26:17;;;;;;;0.10;0.10;;;;;;;;;;5111525;28;20344;-73
2021/08/07 02:28:43;;;;;;;0.10;0.10;;;;;;;;;;5113333;28;20204;-73
2021/08/07 02:31:10;;;;;;;0.00;0.00;;;;;;;;;;5104866;28;20197;-73
2021/08/07 02:33:37;;;;;;;0.00;0.00;;;;;;;;;;5105297;28;20283;-74
2021/08/07 02:36:05;;;;;;;0.00;0.00;;;;;;;;;;5105254;28;20213;-73
2021/08/07 02:38:33;;;;;;;0.00;0.00;;;;;;;;;;5125077;28;20217;-73
2021/08/07 02:41:00;;;;;;;0.00;0.00;;;;;;;;;;5109626;28;20207;-73
2021/08/07 02:43:27;;;;;;;0.10;0.10;;;;;;;;;;5106429;28;20280;-73
2021/08/07 02:45:53;;;;;;;0.00;0.00;;;;;;;;;;5118016;28;20240;-74
2021/08/07 02:48:21;;;;;;;0.00;0.00;;;;;;;;;;5105156;28;20227;-73
2021/08/07 02:50:47;;;;;;;0.00;0.00;;;;;;;;;;5116574;28;20382;-74
2021/08/07 02:53:16;;;;;;;0.00;0.00;;;;;;;;;;5106555;28;20452;-73
2021/08/07 02:55:43;;;;;;;0.00;0.00;;;;;;;;;;5114821;28;20212;-74
2021/08/07 02:58:09;;;;;;;0.00;0.00;;;;;;;;;;5111711;28;20208;-73
2021/08/07 03:00:36;;;;;;;0.00;0.00;;;;;;;;;;5104400;28;20489;-74
2021/08/07 03:03:03;;;;;;;0.10;0.10;;;;;;;;;;5104154;28;20208;-74
2021/08/07 03:05:29;;;;;;;0.00;0.00;;;;;;;;;;5103794;28;20598;-75
2021/08/07 03:07:56;;;;;;;0.00;0.00;;;;;;;;;;5113012;28;20504;-74
2021/08/07 03:10:24;;;;;;;0.00;0.00;;;;;;;;;;5108903;28;20472;-74
2021/08/07 03:12:52;;;;;;;0.00;0.00;;;;;;;;;;5111354;28;20230;-74
2021/08/07 03:15:20;;;;;;;0.10;0.10;;;;;;;;;;5110409;28;20204;-74
2021/08/07 03:17:46;;;;;;;0.10;0.10;;;;;;;;;;5109761;28;20278;-74
2021/08/07 03:20:13;;;;;;;0.00;0.00;;;;;;;;;;5112215;28;20421;-73
2021/08/07 03:22:39;;;;;;;0.00;0.00;;;;;;;;;;5117896;28;20200;-73
2021/08/07 03:25:05;;;;;;;0.00;0.00;;;;;;;;;;5113165;28;20500;-73
2021/08/07 03:27:33;;;;;;;0.00;0.00;;;;;;;;;;5121772;28;20204;-72
2021/08/07 03:29:59;;;;;;;0.00;0.00;;;;;;;;;;5103827;28;20264;-73
2021/08/07 03:32:25;;;;;;;0.00;0.00;;;;;;;;;;5103733;28;20204;-73
2021/08/07 03:34:52;;;;;;;0.00;0.00;;;;;;;;;;5103900;28;20232;-73
2021/08/07 03:37:18;;;;;;;0.00;0.00;;;;;;;;;;5116507;28;20196;-73
2021/08/07 03:39:44;;;;;;;0.00;0.00;;;;;;;;;;5109811;28;20201;-73
2021/08/07 03:42:11;;;;;;;0.00;0.00;;;;;;;;;;5112726;28;20250;-73
2021/08/07 03:44:38;;;;;;;0.00;0.00;;;;;;;;;;5103738;28;20209;-73
2021/08/07 03:47:04;;;;;;;0.00;0.00;;;;;;;;;;5103707;28;20213;-73
2021/08/07 03:49:31;;;;;;;0.03;0.03;;;;;;;;;;5104832;28;20277;-74
2021/08/07 03:51:57;;;;;;;0.10;0.10;;;;;;;;;;5124112;28;20250;-73
2021/08/07 03:54:23;;;;;;;0.00;0.00;;;;;;;;;;5110070;28;20219;-73
2021/08/07 03:56:50;;;;;;;0.00;0.00;;;;;;;;;;5109204;28;20376;-73
2021/08/07 03:59:16;;;;;;;0.10;0.10;;;;;;;;;;5115899;28;20207;-74
2021/08/07 04:01:44;;;;;;;0.00;0.00;;;;;;;;;;5103070;28;20228;-73
2021/08/07 04:04:10;;;;;;;0.00;0.00;;;;;;;;;;5117458;28;20207;-73
2021/08/07 04:06:36;;;;;;;0.05;0.05;;;;;;;;;;5115301;28;20488;-73
2021/08/07 04:09:03;;;;;;;0.00;0.00;;;;;;;;;;5123514;28;20200;-73
2021/08/07 04:11:29;;;;;;;0.10;0.10;;;;;;;;;;5112731;28;20474;-72
2021/08/07 04:13:55;;;;;;;0.00;0.00;;;;;;;;;;5103755;28;20231;-73
2021/08/07 04:16:22;;;;;;;0.00;0.00;;;;;;;;;;5109495;28;20205;-73
2021/08/07 04:18:49;;;;;;;0.00;0.00;;;;;;;;;;5123684;28;20237;-73
2021/08/07 04:21:15;;;;;;;0.00;0.00;;;;;;;;;;5117191;28;20427;-73
2021/08/07 04:23:42;;;;;;;0.00;0.00;;;;;;;;;;5103432;28;20366;-73
2021/08/07 04:26:08;;;;;;;0.00;0.00;;;;;;;;;;5103286;28;20490;-75
2021/08/07 04:28:34;;;;;;;0.10;0.10;;;;;;;;;;5114093;28;20258;-73
2021/08/07 04:31:01;;;;;;;0.00;0.00;;;;;;;;;;5120330;28;20213;-73
2021/08/07 04:33:27;;;;;;;0.00;0.00;;;;;;;;;;5103360;28;20259;-73
2021/08/07 04:35:55;;;;;;;0.00;0.00;;;;;;;;;;5105315;28;20205;-73
2021/08/07 04:38:21;;;;;;;0.00;0.00;;;;;;;;;;5107034;28;20208;-73
2021/08/07 04:40:48;;;;;;;0.00;0.00;;;;;;;;;;5106763;28;20221;-73
2021/08/07 04:43:14;;;;;;;0.10;0.10;;;;;;;;;;5124552;28;20214;-74
2021/08/07 04:45:41;;;;;;;0.00;0.00;;;;;;;;;;5123609;28;20209;-74
2021/08/07 04:48:07;;;;;;;0.00;0.00;;;;;;;;;;5112821;27;20240;-73
2021/08/07 04:50:35;;;;;;;0.00;0.00;;;;;;;;;;5126896;27;20202;-73
2021/08/07 04:53:03;;;;;;;0.00;0.00;;;;;;;;;;5110381;28;20204;-74
2021/08/07 04:55:29;;;;;;;0.00;0.00;;;;;;;;;;5115463;28;20343;-74
2021/08/07 04:57:56;;;;;;;0.00;0.00;;;;;;;;;;5119485;27;20205;-73
2021/08/07 05:00:23;;;;;;;0.10;0.10;;;;;;;;;;5107006;28;20192;-73
2021/08/07 05:02:49;;;;;;;0.00;0.00;;;;;;;;;;5106424;28;20198;-73
2021/08/07 05:05:16;;;;;;;0.08;0.08;;;;;;;;;;5107056;28;20204;-74
2021/08/07 05:07:43;;;;;;;0.10;0.10;;;;;;;;;;5121753;28;20223;-73
2021/08/07 05:10:12;;;;;;;0.10;0.10;;;;;;;;;;5115281;28;20273;-72
2021/08/07 05:12:38;;;;;;;0.10;0.10;;;;;;;;;;5108778;28;20489;-72
2021/08/07 05:15:05;;;;;;;0.10;0.10;;;;;;;;;;5110811;28;20411;-76
2021/08/07 05:17:31;;;;;;;0.10;0.10;;;;;;;;;;5109129;28;20600;-75
2021/08/07 05:19:58;;;;;;;0.03;0.03;;;;;;;;;;5112189;28;20252;-75
2021/08/07 05:22:24;;;;;;;0.00;0.00;;;;;;;;;;5113096;28;20497;-77
2021/08/07 05:24:51;;;;;;;0.00;0.00;;;;;;;;;;5112755;28;20244;-75
2021/08/07 05:27:18;;;;;;;0.00;0.00;;;;;;;;;;5109845;28;20391;-75
2021/08/07 05:29:45;;;;;;;0.00;0.00;;;;;;;;;;5106868;28;20207;-76
2021/08/07 05:32:11;;;;;;;0.10;0.10;;;;;;;;;;5110303;28;20247;-76
2021/08/07 05:34:38;;;;;;;0.10;0.10;;;;;;;;;;5124092;28;20223;-76
2021/08/07 05:37:04;;;;;;;0.10;0.10;;;;;;;;;;5113266;28;20200;-75
2021/08/07 05:39:30;;;;;;;0.00;0.00;;;;;;;;;;5115722;28;20436;-77
2021/08/07 05:41:56;;;;;;;0.00;0.00;;;;;;;;;;5115398;27;20264;-76
2021/08/07 05:44:24;;;;;;;0.00;0.00;;;;;;;;;;5110705;28;20508;-77
2021/08/07 05:46:51;;;;;;;0.05;0.05;;;;;;;;;;5104426;28;20333;-78
2021/08/07 05:49:17;;;;;;;0.00;0.00;;;;;;;;;;5114911;28;20201;-76
2021/08/07 05:51:43;;;;;;;0.00;0.00;;;;;;;;;;5110274;27;20423;-76
2021/08/07 05:54:09;;;;;;;0.05;0.05;;;;;;;;;;5105209;28;20294;-76
2021/08/07 05:56:36;;;;;;;0.00;0.00;;;;;;;;;;5110854;28;20202;-76
2021/08/07 05:59:02;;;;;;;0.05;0.05;;;;;;;;;;5119374;28;20214;-76
2021/08/07 06:01:29;;;;;;;0.00;0.00;;;;;;;;;;5104687;28;20270;-76
2021/08/07 06:03:56;;;;;;;0.10;0.10;;;;;;;;;;5123047;28;20249;-77
2021/08/07 06:06:22;;;;;;;0.00;0.00;;;;;;;;;;5125167;28;20221;-76
2021/08/07 06:08:48;;;;;;;0.10;0.10;;;;;;;;;;5122735;28;20211;-78
2021/08/07 06:11:14;;;;;;;0.10;0.10;;;;;;;;;;5104774;28;20437;-77
2021/08/07 06:13:40;;;;;;;0.00;0.00;;;;;;;;;;5104362;28;20207;-75
2021/08/07 06:16:07;;;;;;;0.00;0.00;;;;;;;;;;5104790;28;20250;-76
2021/08/07 06:18:34;;;;;;;0.00;0.00;;;;;;;;;;5104879;28;20228;-76
2021/08/07 06:21:00;;;;;;;0.00;0.00;;;;;;;;;;5109337;28;20253;-76
2021/08/07 06:23:27;;;;;;;0.00;0.00;;;;;;;;;;5114377;28;20300;-78
2021/08/07 06:25:53;;;;;;;2.28;2.17;;;;;;;;;;5104570;28;20265;-77
2021/08/07 06:28:20;;;;;;;0.00;0.00;;;;;;;;;;5104650;28;20210;-77
2021/08/07 06:30:46;;;;;;;0.10;0.10;;;;;;;;;;5118574;28;20558;-76
2021/08/07 06:33:12;;;;;;;0.00;0.00;;;;;;;;;;5111128;28;20197;-77
2021/08/07 06:35:40;;;;;;;0.00;0.00;;;;;;;;;;5124733;28;20373;-76
2021/08/07 06:38:07;;;;;;;0.00;0.00;;;;;;;;;;5110348;28;20209;-76
2021/08/07 06:40:34;;;;;;;0.00;0.00;;;;;;;;;;5113206;28;20250;-77
2021/08/07 06:43:00;;;;;;;0.10;0.10;;;;;;;;;;5104816;28;20204;-76
2021/08/07 06:45:27;;;;;;;0.05;0.05;;;;;;;;;;5110206;28;20201;-77
2021/08/07 06:47:53;;;;;;;0.00;0.00;;;;;;;;;;5108500;28;20208;-77
2021/08/07 06:50:19;;;;;;;0.10;0.10;;;;;;;;;;5104219;28;20226;-75
2021/08/07 06:52:47;;;;;;;0.00;0.00;;;;;;;;;;5104188;28;20235;-77
2021/08/07 06:55:13;;;;;;;0.00;0.00;;;;;;;;;;5103860;28;20286;-77
2021/08/07 06:57:39;;;;;;;0.00;0.00;;;;;;;;;;5107866;28;20309;-77
2021/08/07 07:00:09;;;;;;;0.08;0.08;;;;;;;;;;5118842;28;20210;-77
2021/08/07 07:02:35;;;;;;;0.00;0.00;;;;;;;;;;5104269;28;20243;-77
2021/08/07 07:05:01;;;;;;;0.00;0.00;;;;;;;;;;5104833;28;20205;-79
2021/08/07 07:07:28;;;;;;;0.00;0.00;;;;;;;;;;5103823;28;20269;-78
2021/08/07 07:09:55;;;;;;;0.10;0.10;;;;;;;;;;5104459;28;20412;-78
2021/08/07 07:12:21;;;;;;;0.00;0.00;;;;;;;;;;5104225;28;20251;-77
2021/08/07 07:14:48;;;;;;;0.00;0.00;;;;;;;;;;5113571;28;20250;-77
2021/08/07 07:17:14;;;;;;;0.10;0.10;;;;;;;;;;5123038;28;20230;-76
2021/08/07 07:19:41;;;;;;;0.10;0.10;;;;;;;;;;5111696;28;20217;-76
2021/08/07 07:22:07;;;;;;;0.00;0.00;;;;;;;;;;5124116;28;20202;-76
2021/08/07 07:24:33;;;;;;;0.00;0.00;;;;;;;;;;5110010;28;20495;-77
2021/08/07 07:27:01;;;;;;;0.00;0.00;;;;;;;;;;5124593;28;20202;-77
2021/08/07 07:29:27;;;;;;;0.00;0.00;;;;;;;;;;5120306;28;20203;-77
2021/08/07 07:31:54;;;;;;;0.00;0.00;;;;;;;;;;5103850;28;20430;-76
2021/08/07 07:34:20;;;;;;;0.10;0.10;;;;;;;;;;5103781;28;20244;-76
2021/08/07 07:36:46;;;;;;;0.00;0.00;;;;;;;;;;5106596;28;20199;-77
2021/08/07 07:39:13;;;;;;;0.00;0.00;;;;;;;;;;5104040;28;20210;-77
2021/08/07 07:41:39;;;;;;;0.00;0.00;;;;;;;;;;5117618;28;20203;-77
2021/08/07 07:44:07;;;;;;;0.00;0.00;;;;;;;;;;5116418;28;20202;-77
2021/08/07 07:46:33;;;;;;;0.10;0.10;;;;;;;;;;5109453;28;20232;-77
2021/08/07 07:49:00;;;;;;;0.00;0.00;;;;;;;;;;5123721;28;20509;-77
2021/08/07 07:51:26;;;;;;;0.00;0.00;;;;;;;;;;5124271;28;20261;-78
2021/08/07 07:53:52;;;;;;;0.00;0.00;;;;;;;;;;5115150;28;20202;-76
2021/08/07 07:56:20;;;;;;;0.00;0.00;;;;;;;;;;5103146;28;20229;-76
2021/08/07 07:58:46;;;;;;;0.00;0.00;;;;;;;;;;5103660;28;20255;-77
2021/08/07 08:01:14;;;;;;;0.00;0.00;;;;;;;;;;5113006;28;20202;-77
2021/08/07 08:03:40;;;;;;;0.00;0.00;;;;;;;;;;5107335;28;20215;-77
2021/08/07 08:06:07;;;;;;;0.00;0.00;;;;;;;;;;5103409;28;20210;-76
2021/08/07 08:08:33;;;;;;;0.00;0.00;;;;;;;;;;5117769;28;20228;-77
2021/08/07 08:10:59;;;;;;;0.00;0.00;;;;;;;;;;5120037;28;20203;-76
2021/08/07 08:13:26;;;;;;;0.00;0.00;;;;;;;;;;5107891;28;20355;-77
2021/08/07 08:15:52;;;;;;;0.00;0.00;;;;;;;;;;5107255;28;20579;-77
2021/08/07 08:18:19;;;;;;;0.10;0.10;;;;;;;;;;5107348;28;20276;-77
2021/08/07 08:20:46;;;;;;;0.10;0.10;;;;;;;;;;5107178;28;20548;-77
2021/08/07 08:23:13;;;;;;;0.00;0.00;;;;;;;;;;5116363;28;20198;-77
2021/08/07 08:25:39;;;;;;;0.00;0.00;;;;;;;;;;5119822;28;20493;-76
2021/08/07 08:28:08;;;;;;;0.10;0.10;;;;;;;;;;5107225;28;20217;-76
2021/08/07 08:30:35;;;;;;;0.00;0.00;;;;;;;;;;5120762;28;20268;-77
2021/08/07 08:33:01;;;;;;;0.00;0.00;;;;;;;;;;5113012;28;20247;-77
2021/08/07 08:35:29;;;;;;;0.10;0.10;;;;;;;;;;5115410;28;20260;-76
2021/08/07 08:37:55;;;;;;;0.00;0.00;;;;;;;;;;5124934;28;20259;-77
2021/08/07 08:40:21;;;;;;;0.03;0.03;;;;;;;;;;5116944;28;20207;-76
2021/08/07 08:42:48;;;;;;;0.00;0.00;;;;;;;;;;5120992;28;20202;-77
2021/08/07 08:45:14;;;;;;;0.10;0.10;;;;;;;;;;5106533;28;20335;-75
2021/08/07 08:47:41;;;;;;;0.10;0.10;;;;;;;;;;5122003;28;20506;-77
2021/08/07 08:50:08;;;;;;;0.00;0.00;;;;;;;;;;5106410;28;20207;-77
2021/08/07 08:52:38;;;;;;;0.00;0.00;;;;;;;;;;5106412;28;20502;-77
2021/08/07 08:55:04;;;;;;;0.10;0.10;;;;;;;;;;5106460;28;20222;-77
2021/08/07 08:57:31;;;;;;;0.00;0.00;;;;;;;;;;5110344;28;20211;-77
2021/08/07 08:59:57;;;;;;;0.00;0.00;;;;;;;;;;5106525;28;20363;-76
2021/08/07 09:02:23;;;;;;;0.00;0.00;;;;;;;;;;5111891;28;20485;-76
2021/08/07 09:04:50;;;;;;;0.00;0.00;;;;;;;;;;5127735;28;20518;-77
2021/08/07 09:07:16;;;;;;;0.00;0.00;;;;;;;;;;5123002;28;20214;-78
2021/08/07 09:09:44;;;;;;;0.00;0.00;;;;;;;;;;5116199;28;20198;-78
2021/08/07 09:12:12;;;;;;;0.00;0.00;;;;;;;;;;5126798;28;20248;-77
2021/08/07 09:14:39;;;;;;;0.00;0.00;;;;;;;;;;5118610;28;20220;-77
2021/08/07 09:17:07;;;;;;;0.00;0.00;;;;;;;;;;5110872;28;20203;-76
2021/08/07 09:19:50;;;;;;;0.00;0.00;;;;;;;;;;5119789;28;20223;-76
2021/08/07 09:22:18;;;;;;;0.00;0.00;;;;;;;;;;5105131;28;20199;-76
2021/08/07 09:24:56;;;;;;;0.10;0.10;;;;;;;;;;5106055;28;20207;-76
2021/08/07 09:27:27;;;;;;;0.00;0.00;;;;;;;;;;5106253;28;20349;-76
2021/08/07 09:29:53;;;;;;;0.00;0.00;;;;;;;;;;5106053;28;20202;-78
2021/08/07 09:32:20;;;;;;;0.00;0.00;;;;;;;;;;5105991;28;20203;-77
2021/08/07 09:35:02;;;;;;;0.00;0.00;;;;;;;;;;5120109;28;20433;-78
2021/08/07 09:37:29;;;;;;;0.00;0.00;;;;;;;;;;5105892;28;20460;-77
2021/08/07 09:39:59;;;;;;;0.00;0.00;;;;;;;;;;5105864;28;20270;-77
2021/08/07 09:42:27;;;;;;;0.00;0.00;;;;;;;;;;5105857;28;20236;-77
2021/08/07 09:44:59;;;;;;;0.00;0.00;;;;;;;;;;5110501;28;20201;-79
2021/08/07 09:47:26;;;;;;;0.10;0.10;;;;;;;;;;5125689;28;20206;-77
2021/08/07 09:49:52;;;;;;;0.00;0.00;;;;;;;;;;5111427;28;20198;-77
2021/08/07 09:52:18;;;;;;;0.00;0.00;;;;;;;;;;5115261;27;20210;-76
2021/08/07 09:54:46;;;;;;;0.00;0.00;;;;;;;;;;5107118;28;20199;-76
2021/08/07 09:57:24;;;;;;;0.00;0.00;;;;;;;;;;5125873;28;20391;-77
2021/08/07 09:59:51;;;;;;;0.00;0.00;;;;;;;;;;5113165;28;20207;-78
2021/08/07 10:02:24;;;;;;;0.00;0.00;;;;;;;;;;5105270;28;20221;-76
2021/08/07 10:04:50;;;;;;;0.00;0.00;;;;;;;;;;5116647;28;20209;-75
2021/08/07 10:07:17;;;;;;;0.00;0.00;;;;;;;;;;5121585;28;20214;-77
2021/08/07 10:09:43;;;;;;;0.10;0.10;;;;;;;;;;5104903;28;20202;-76
2021/08/07 10:12:10;;;;;;;0.00;0.00;;;;;;;;;;5120846;28;20302;-79
2021/08/07 10:14:38;;;;;;;0.00;0.00;;;;;;;;;;5108818;28;20289;-76
2021/08/07 10:17:05;;;;;;;0.00;0.00;;;;;;;;;;5119224;28;20267;-76
2021/08/07 10:19:32;;;;;;;0.00;0.00;;;;;;;;;;5118493;28;20218;-77
2021/08/07 10:21:59;;;;;;;0.00;0.00;;;;;;;;;;5117543;28;20210;-77
2021/08/07 10:24:27;;;;;;;0.00;0.00;;;;;;;;;;5106254;28;20536;-77
2021/08/07 10:26:55;;;;;;;0.00;0.00;;;;;;;;;;5115597;28;20373;-77
2021/08/07 10:29:25;;;;;;;0.00;0.00;;;;;;;;;;5121482;28;20203;-77
2021/08/07 10:31:53;;;;;;;0.00;0.00;;;;;;;;;;5104542;28;20198;-76
2021/08/07 10:34:22;;;;;;;0.00;0.00;;;;;;;;;;5120377;28;20216;-76
2021/08/07 10:36:48;;;;;;;0.10;0.10;;;;;;;;;;5116110;28;20339;-76
2021/08/07 10:39:15;;;;;;;0.10;0.10;;;;;;;;;;5118568;28;20202;-72
2021/08/07 10:41:42;;;;;;;0.20;0.20;;;;;;;;;;5104744;28;20221;-76
2021/08/07 10:44:11;;;;;;;0.10;0.10;;;;;;;;;;5117647;28;20401;-75
2021/08/07 10:46:38;;;;;;;0.08;0.08;;;;;;;;;;5121427;28;20219;-76
2021/08/07 10:49:08;;;;;;;0.00;0.00;;;;;;;;;;5115575;28;20237;-73
2021/08/07 10:51:38;;;;;;;0.00;0.00;;;;;;;;;;5109782;28;20536;-73
2021/08/07 10:54:19;;;;;;;0.00;0.00;;;;;;;;;;5106999;28;20250;-74
2021/08/07 10:56:45;;;;;;;0.00;0.00;;;;;;;;;;5106467;28;20226;-76
2021/08/07 10:59:19;;;;;;;0.00;0.00;;;;;;;;;;5115364;27;20202;-75
2021/08/07 11:01:46;;;;;;;0.00;0.00;;;;;;;;;;5107839;28;20209;-76
2021/08/07 11:04:15;;;;;;;0.00;0.00;;;;;;;;;;5110824;28;20214;-74
2021/08/07 11:06:55;;;;;;;0.00;0.00;;;;;;;;;;5110816;28;20210;-74
2021/08/07 11:09:24;;;;;;;0.00;0.00;;;;;;;;;;5107434;28;20209;-74
2021/08/07 11:12:07;;;;;;;0.00;0.00;;;;;;;;;;5115434;28;20194;-74
2021/08/07 11:14:42;;;;;;;0.00;0.00;;;;;;;;;;5107234;28;20248;-74
2021/08/07 11:17:24;;;;;;;0.00;0.00;;;;;;;;;;5111420;28;20221;-74
2021/08/07 11:19:54;;;;;;;0.00;0.00;;;;;;;;;;5111531;28;20198;-74
2021/08/07 11:22:41;;;;;;;0.00;0.00;;;;;;;;;;5104847;28;20205;-74
2021/08/07 11:25:10;;;;;;;0.00;0.00;;;;;;;;;;5111333;28;20528;-73
2021/08/07 11:27:59;;;;;;;0.00;0.00;;;;;;;;;;5102750;28;20206;-73
2021/08/07 11:30:26;;;;;;;0.00;0.00;;;;;;;;;;5108278;28;20203;-73
2021/08/07 11:33:07;;;;;;;0.00;0.00;;;;;;;;;;5104613;28;20206;-73
2021/08/07 11:35:52;;;;;;;0.00;0.00;;;;;;;;;;5106693;28;20565;-76
2021/08/07 11:38:19;;;;;;;0.00;0.00;;;;;;;;;;5108344;28;20393;-75
2021/08/07 11:40:48;;;;;;;0.00;0.00;;;;;;;;;;5110805;28;20545;-74
2021/08/07 11:43:17;;;;;;;0.00;0.00;;;;;;;;;;5109961;28;20202;-75
2021/08/07 11:45:44;;;;;;;0.00;0.00;;;;;;;;;;5112944;28;20387;-74
2021/08/07 11:48:10;;;;;;;0.10;0.10;;;;;;;;;;5109861;28;20199;-74
2021/08/07 11:50:42;;;;;;;0.00;0.00;;;;;;;;;;5107178;28;20384;-73
2021/08/07 11:53:13;;;;;;;0.00;0.00;;;;;;;;;;5107230;28;20544;-74
2021/08/07 11:55:40;;;;;;;0.00;0.00;;;;;;;;;;5107155;28;20237;-75
2021/08/07 11:58:09;;;;;;;0.00;0.00;;;;;;;;;;5103479;28;20202;-75
2021/08/07 12:00:36;;;;;;;0.00;0.00;;;;;;;;;;5111941;28;20202;-77
2021/08/07 12:03:03;;;;;;;0.00;0.00;;;;;;;;;;5109126;28;20551;-75
2021/08/07 12:05:31;;;;;;;0.00;0.00;;;;;;;;;;5102766;28;20515;-75
2021/08/07 12:08:01;;;;;;;0.00;0.00;;;;;;;;;;5106616;28;20214;-74
2021/08/07 12:10:27;;;;;;;0.00;0.00;;;;;;;;;;5106619;28;20206;-75
2021/08/07 12:12:54;;;;;;;0.00;0.00;;;;;;;;;;5110896;28;20498;-74
2021/08/07 12:15:22;;;;;;;0.00;0.00;;;;;;;;;;5110461;28;20383;-73
2021/08/07 12:17:49;;;;;;;0.00;0.00;;;;;;;;;;5113345;28;20226;-74
2021/08/07 12:20:16;;;;;;;0.00;0.00;;;;;;;;;;5105704;28;20199;-72
2021/08/07 12:23:09;;;;;;;0.00;0.00;;;;;;;;;;5111753;28;20203;-74
2021/08/07 12:25:35;;;;;;;0.00;0.00;;;;;;;;;;5080948;28;20203;-74
2021/08/07 12:28:02;;;;;;;0.00;0.00;;;;;;;;;;5113890;28;20203;-73
2021/08/07 12:30:31;;;;;;;0.00;0.00;;;;;;;;;;5105821;28;20266;-75
2021/08/07 12:33:12;;;;;;;0.00;0.00;;;;;;;;;;5118909;28;20543;-74
2021/08/07 12:35:39;;;;;;;0.00;0.00;;;;;;;;;;5120004;28;20206;-75
2021/08/07 12:38:05;;;;;;;0.00;0.00;;;;;;;;;;5117647;28;20219;-70
2021/08/07 12:40:31;;;;;;;0.00;0.00;;;;;;;;;;5120516;28;20202;-73
2021/08/07 12:42:57;;;;;;;0.00;0.00;;;;;;;;;;5105525;28;20202;-73
2021/08/07 12:45:24;;;;;;;0.00;0.00;;;;;;;;;;5117674;28;20202;-73
2021/08/07 12:47:55;;;;;;;0.00;0.00;;;;;;;;;;5114489;28;20198;-78
2021/08/07 12:50:22;;;;;;;0.00;0.00;;;;;;;;;;5108785;28;20195;-77
2021/08/07 12:52:49;;;;;;;0.00;0.00;;;;;;;;;;5108166;28;20203;-77
2021/08/07 12:55:18;;;;;;;0.00;0.00;;;;;;;;;;5111126;28;20248;-76
2021/08/07 12:57:44;;;;;;;0.00;0.00;;;;;;;;;;5110863;28;20260;-76
2021/08/07 13:00:11;;;;;;;0.00;0.00;;;;;;;;;;5111473;28;20198;-77
2021/08/07 13:02:37;;;;;;;0.10;0.10;;;;;;;;;;5113950;28;20195;-77
2021/08/07 13:05:06;;;;;;;0.00;0.00;;;;;;;;;;5118485;28;20203;-74
2021/08/07 13:07:33;;;;;;;0.00;0.00;;;;;;;;;;5119427;28;20262;-74
2021/08/07 13:10:14;;;;;;;0.00;0.00;;;;;;;;;;5112792;28;20210;-73
2021/08/07 13:12:42;;;;;;;0.00;0.00;;;;;;;;;;5110076;28;20211;-75
2021/08/07 13:15:08;;;;;;;0.00;0.00;;;;;;;;;;5111163;28;20203;-74
2021/08/07 13:17:35;;;;;;;0.00;0.00;;;;;;;;;;5108600;28;20414;-74
2021/08/07 13:20:02;;;;;;;0.00;0.00;;;;;;;;;;5112539;28;20202;-72
2021/08/07 13:22:30;;;;;;;0.00;0.00;;;;;;;;;;5117287;28;20248;-75
2021/08/07 13:24:57;;;;;;;0.00;0.00;;;;;;;;;;5124182;28;20232;-75
2021/08/07 13:27:33;;;;;;;0.00;0.00;;;;;;;;;;5121293;28;20198;-75
2021/08/07 13:30:00;;;;;;;0.10;0.10;;;;;;;;;;5111560;28;20249;-74
2021/08/07 13:32:28;;;;;;;0.00;0.00;;;;;;;;;;5114190;28;20202;-73
2021/08/07 13:34:55;;;;;;;0.00;0.00;;;;;;;;;;5119012;28;20198;-78
2021/08/07 13:37:21;;;;;;;0.03;0.03;;;;;;;;;;5109239;28;20264;-76
2021/08/07 13:39:49;;;;;;;0.00;0.00;;;;;;;;;;5116995;28;20195;-73
2021/08/07 13:42:17;;;;;;;0.10;0.10;;;;;;;;;;5109129;28;20387;-73
2021/08/07 13:44:44;;;;;;;0.00;0.00;;;;;;;;;;5116717;28;20224;-72
2021/08/07 13:47:10;;;;;;;0.10;0.10;;;;;;;;;;5105997;28;20237;-73
2021/08/07 13:49:36;;;;;;;0.00;0.00;;;;;;;;;;5109283;28;20207;-75
2021/08/07 13:52:03;;;;;;;0.00;0.00;;;;;;;;;;5110481;28;20203;-74
2021/08/07 13:54:29;;;;;;;0.00;0.00;;;;;;;;;;5108154;28;20202;-74
2021/08/07 13:56:57;;;;;;;0.00;0.00;;;;;;;;;;5109245;28;20269;-73
2021/08/07 13:59:23;;;;;;;0.00;0.00;;;;;;;;;;5111662;28;20542;-73
2021/08/07 14:01:52;;;;;;;0.00;0.00;;;;;;;;;;5111669;28;20221;-74
2021/08/07 14:04:19;;;;;;;0.00;0.00;;;;;;;;;;5107426;28;20421;-74
2021/08/07 14:06:45;;;;;;;0.00;0.00;;;;;;;;;;5107662;28;20214;-72
2021/08/07 14:09:11;;;;;;;0.00;0.00;;;;;;;;;;5117760;28;20248;-73
2021/08/07 14:11:37;;;;;;;0.03;0.03;;;;;;;;;;5109646;28;20223;-75
2021/08/07 14:14:05;;;;;;;0.00;0.00;;;;;;;;;;5113760;28;20239;-73
2021/08/07 14:16:31;;;;;;;0.00;0.00;;;;;;;;;;5107476;28;20234;-75
2021/08/07 14:18:57;;;;;;;0.00;0.00;;;;;;;;;;5112361;28;20231;-74
2021/08/07 14:21:24;;;;;;;0.00;0.00;;;;;;;;;;5112767;28;20210;-74
2021/08/07 14:23:50;;;;;;;0.00;0.00;;;;;;;;;;5110946;28;20229;-77
2021/08/07 14:26:16;;;;;;;0.00;0.00;;;;;;;;;;5120653;28;20225;-77
2021/08/07 14:28:43;;;;;;;0.00;0.00;;;;;;;;;;5115896;28;20248;-77
2021/08/07 14:31:11;;;;;;;0.00;0.00;;;;;;;;;;5107147;28;20281;-78
2021/08/07 14:33:38;;;;;;;0.00;0.00;;;;;;;;;;5115749;28;20217;-77
2021/08/07 14:36:04;;;;;;;0.00;0.00;;;;;;;;;;5112854;28;20207;-72
2021/08/07 14:38:30;;;;;;;0.00;0.00;;;;;;;;;;5109255;28;20222;-73
2021/08/07 14:40:57;;;;;;;0.00;0.00;;;;;;;;;;5112774;28;20474;-74
2021/08/07 14:43:23;;;;;;;0.10;0.10;;;;;;;;;;5105818;28;20195;-79
2021/08/07 14:45:49;;;;;;;0.00;0.00;;;;;;;;;;5108456;28;20199;-77